sensor_id;sensor_type;location;lat;lon;timestamp;pressure;altitude;pressure_sealevel;temperature;humidity
76762;BME280;65705;51.032;13.790;2023-04-19T00:01:48;101183.84;;;10.01;83.33
76762;BME280;65705;51.032;13.790;2023-04-19T00:04:14;101178.63;;;10.01;83.28
76762;BME280;65705;51.032;13.790;2023-04-19T00:06:40;101179.78;;;9.87;82.17
76762;BME280;65705;51.032;13.790;2023-04-19T00:09:07;101177.09;;;9.78;82.91
76762;BME280;65705;51.032;13.790;2023-04-19T00:11:33;101173.03;;;9.74;82.71
76762;BME280;65705;51.032;13.790;2023-04-19T00:13:59;101171.44;;;9.62;82.90
76762;BME280;65705;51.032;13.790;2023-04-19T00:16:24;101175.03;;;9.61;83.00
76762;BME280;65705;51.032;13.790;2023-04-19T00:18:50;101167.84;;;9.63;83.41
76762;BME280;65705;51.032;13.790;2023-04-19T00:21:16;101171.38;;;9.52;82.85
76762;BME280;65705;51.032;13.790;2023-04-19T00:23:42;101167.53;;;9.56;82.98
76762;BME280;65705;51.032;13.790;2023-04-19T00:26:08;101171.25;;;9.53;82.22
76762;BME280;65705;51.032;13.790;2023-04-19T00:28:36;101165.94;;;9.65;81.65
76762;BME280;65705;51.032;13.790;2023-04-19T00:31:01;101160.78;;;9.53;81.44
76762;BME280;65705;51.032;13.790;2023-04-19T00:33:27;101159.75;;;9.66;81.37
76762;BME280;65705;51.032;13.790;2023-04-19T00:35:56;101159.91;;;9.64;81.24
76762;BME280;65705;51.032;13.790;2023-04-19T00:38:21;101158.91;;;9.65;80.43
76762;BME280;65705;51.032;13.790;2023-04-19T00:40:47;101163.31;;;9.44;80.88
76762;BME280;65705;51.032;13.790;2023-04-19T00:43:17;101155.41;;;9.55;80.76
76762;BME280;65705;51.032;13.790;2023-04-19T00:45:44;101155.66;;;9.52;80.47
76762;BME280;65705;51.032;13.790;2023-04-19T00:48:12;101155.38;;;9.34;80.56
76762;BME280;65705;51.032;13.790;2023-04-19T00:50:38;101145.81;;;9.44;80.13
76762;BME280;65705;51.032;13.790;2023-04-19T00:53:06;101145.91;;;9.43;80.20
76762;BME280;65705;51.032;13.790;2023-04-19T00:55:32;101146.50;;;9.46;80.45
76762;BME280;65705;51.032;13.790;2023-04-19T00:57:58;101148.84;;;9.61;79.35
76762;BME280;65705;51.032;13.790;2023-04-19T01:00:24;101140.44;;;9.67;78.93
76762;BME280;65705;51.032;13.790;2023-04-19T01:02:50;101141.91;;;9.59;79.00
76762;BME280;65705;51.032;13.790;2023-04-19T01:05:18;101141.91;;;9.59;79.42
76762;BME280;65705;51.032;13.790;2023-04-19T01:07:44;101144.53;;;9.59;79.04
76762;BME280;65705;51.032;13.790;2023-04-19T01:10:14;101141.03;;;9.49;78.33
76762;BME280;65705;51.032;13.790;2023-04-19T01:12:40;101143.53;;;9.19;78.96
76762;BME280;65705;51.032;13.790;2023-04-19T01:15:06;101133.25;;;9.27;78.93
76762;BME280;65705;51.032;13.790;2023-04-19T01:17:33;101134.66;;;9.31;78.42
76762;BME280;65705;51.032;13.790;2023-04-19T01:20:03;101133.00;;;9.30;78.14
76762;BME280;65705;51.032;13.790;2023-04-19T01:22:36;101129.22;;;9.23;78.42
76762;BME280;65705;51.032;13.790;2023-04-19T01:25:05;101131.97;;;9.22;78.20
76762;BME280;65705;51.032;13.790;2023-04-19T01:27:32;101128.06;;;9.16;78.50
76762;BME280;65705;51.032;13.790;2023-04-19T01:29:57;101126.16;;;9.18;78.59
76762;BME280;65705;51.032;13.790;2023-04-19T01:32:25;101129.00;;;9.26;78.04
76762;BME280;65705;51.032;13.790;2023-04-19T01:34:51;101118.25;;;8.98;78.81
76762;BME280;65705;51.032;13.790;2023-04-19T01:37:17;101119.16;;;9.08;78.60
76762;BME280;65705;51.032;13.790;2023-04-19T01:39:43;101118.81;;;9.12;78.89
76762;BME280;65705;51.032;13.790;2023-04-19T01:42:09;101119.88;;;9.10;78.28
76762;BME280;65705;51.032;13.790;2023-04-19T01:44:35;101118.81;;;9.12;78.27
76762;BME280;65705;51.032;13.790;2023-04-19T01:47:01;101121.28;;;9.14;77.38
76762;BME280;65705;51.032;13.790;2023-04-19T01:49:27;101123.06;;;9.13;77.36
76762;BME280;65705;51.032;13.790;2023-04-19T01:51:52;101123.81;;;9.04;77.37
76762;BME280;65705;51.032;13.790;2023-04-19T01:54:19;101114.94;;;8.96;77.63
76762;BME280;65705;51.032;13.790;2023-04-19T01:56:48;101119.75;;;9.11;77.53
76762;BME280;65705;51.032;13.790;2023-04-19T01:59:14;101115.84;;;9.06;77.76
76762;BME280;65705;51.032;13.790;2023-04-19T02:01:40;101117.41;;;8.97;78.14
76762;BME280;65705;51.032;13.790;2023-04-19T02:04:06;101111.22;;;8.98;78.30
76762;BME280;65705;51.032;13.790;2023-04-19T02:06:32;101116.06;;;9.14;77.90
76762;BME280;65705;51.032;13.790;2023-04-19T02:08:58;101108.34;;;9.12;77.63
76762;BME280;65705;51.032;13.790;2023-04-19T02:11:23;101103.88;;;8.92;77.97
76762;BME280;65705;51.032;13.790;2023-04-19T02:13:49;101104.00;;;8.91;78.12
76762;BME280;65705;51.032;13.790;2023-04-19T02:16:15;101099.97;;;8.87;78.58
76762;BME280;65705;51.032;13.790;2023-04-19T02:18:41;101112.69;;;8.80;78.58
76762;BME280;65705;51.032;13.790;2023-04-19T02:21:08;101103.50;;;8.86;78.21
76762;BME280;65705;51.032;13.790;2023-04-19T02:23:34;101104.22;;;8.88;78.45
76762;BME280;65705;51.032;13.790;2023-04-19T02:26:00;101104.59;;;8.94;77.94
76762;BME280;65705;51.032;13.790;2023-04-19T02:28:29;101111.59;;;8.94;77.77
76762;BME280;65705;51.032;13.790;2023-04-19T02:30:55;101105.56;;;8.82;78.18
76762;BME280;65705;51.032;13.790;2023-04-19T02:33:21;101103.78;;;8.72;78.45
76762;BME280;65705;51.032;13.790;2023-04-19T02:35:47;101094.00;;;8.85;78.52
76762;BME280;65705;51.032;13.790;2023-04-19T02:38:12;101099.84;;;8.88;78.46
76762;BME280;65705;51.032;13.790;2023-04-19T02:40:38;101099.84;;;8.88;78.16
76762;BME280;65705;51.032;13.790;2023-04-19T02:43:04;101093.44;;;8.81;78.32
76762;BME280;65705;51.032;13.790;2023-04-19T02:45:30;101096.06;;;8.70;78.41
76762;BME280;65705;51.032;13.790;2023-04-19T02:47:56;101094.16;;;8.72;78.38
76762;BME280;65705;51.032;13.790;2023-04-19T02:50:23;101085.00;;;8.78;78.44
76762;BME280;65705;51.032;13.790;2023-04-19T02:52:49;101089.53;;;8.76;78.33
76762;BME280;65705;51.032;13.790;2023-04-19T02:55:16;101087.22;;;8.82;78.23
76762;BME280;65705;51.032;13.790;2023-04-19T02:57:44;101085.84;;;8.78;78.05
76762;BME280;65705;51.032;13.790;2023-04-19T03:00:10;101089.25;;;8.79;78.11
76762;BME280;65705;51.032;13.790;2023-04-19T03:02:40;101078.44;;;8.83;78.10
76762;BME280;65705;51.032;13.790;2023-04-19T03:05:09;101083.25;;;8.56;78.61
76762;BME280;65705;51.032;13.790;2023-04-19T03:07:35;101095.88;;;8.62;77.83
76762;BME280;65705;51.032;13.790;2023-04-19T03:10:01;101084.69;;;8.49;78.40
76762;BME280;65705;51.032;13.790;2023-04-19T03:12:27;101086.22;;;8.51;78.82
76762;BME280;65705;51.032;13.790;2023-04-19T03:14:53;101070.50;;;8.63;78.40
76762;BME280;65705;51.032;13.790;2023-04-19T03:17:19;101070.53;;;8.51;78.66
76762;BME280;65705;51.032;13.790;2023-04-19T03:19:46;101077.78;;;8.48;78.94
76762;BME280;65705;51.032;13.790;2023-04-19T03:22:12;101068.56;;;8.44;78.42
76762;BME280;65705;51.032;13.790;2023-04-19T03:24:38;101066.41;;;8.38;79.29
76762;BME280;65705;51.032;13.790;2023-04-19T03:27:18;101065.69;;;8.47;79.25
76762;BME280;65705;51.032;13.790;2023-04-19T03:29:47;101057.50;;;8.40;78.97
76762;BME280;65705;51.032;13.790;2023-04-19T03:32:12;101057.25;;;8.32;79.15
76762;BME280;65705;51.032;13.790;2023-04-19T03:34:38;101054.31;;;8.26;79.40
76762;BME280;65705;51.032;13.790;2023-04-19T03:37:04;101056.66;;;8.18;79.76
76762;BME280;65705;51.032;13.790;2023-04-19T03:39:31;101051.44;;;7.96;80.18
76762;BME280;65705;51.032;13.790;2023-04-19T03:42:01;101054.28;;;8.15;80.08
76762;BME280;65705;51.032;13.790;2023-04-19T03:44:54;101058.56;;;8.27;79.43
76762;BME280;65705;51.032;13.790;2023-04-19T03:47:21;101064.28;;;8.21;78.95
76762;BME280;65705;51.032;13.790;2023-04-19T03:49:48;101051.09;;;8.33;78.29
76762;BME280;65705;51.032;13.790;2023-04-19T03:52:16;101046.59;;;8.24;78.80
76762;BME280;65705;51.032;13.790;2023-04-19T03:54:41;101041.91;;;8.17;79.29
76762;BME280;65705;51.032;13.790;2023-04-19T03:57:16;101051.69;;;8.26;78.74
76762;BME280;65705;51.032;13.790;2023-04-19T03:59:42;101036.91;;;8.14;79.28
76762;BME280;65705;51.032;13.790;2023-04-19T04:02:09;101032.91;;;8.10;79.22
76762;BME280;65705;51.032;13.790;2023-04-19T04:04:34;101036.56;;;8.07;79.10
76762;BME280;65705;51.032;13.790;2023-04-19T04:07:00;101033.63;;;8.12;79.16
76762;BME280;65705;51.032;13.790;2023-04-19T04:09:27;101039.78;;;8.22;78.78
76762;BME280;65705;51.032;13.790;2023-04-19T04:11:52;101040.81;;;8.19;78.85
76762;BME280;65705;51.032;13.790;2023-04-19T04:14:18;101048.47;;;8.00;78.57
76762;BME280;65705;51.032;13.790;2023-04-19T04:16:45;101044.88;;;8.12;78.25
76762;BME280;65705;51.032;13.790;2023-04-19T04:19:11;101048.59;;;8.21;77.69
76762;BME280;65705;51.032;13.790;2023-04-19T04:21:39;101049.53;;;8.09;76.30
76762;BME280;65705;51.032;13.790;2023-04-19T04:24:06;101046.19;;;8.07;76.45
76762;BME280;65705;51.032;13.790;2023-04-19T04:26:41;101059.75;;;8.01;75.83
76762;BME280;65705;51.032;13.790;2023-04-19T04:29:18;101060.56;;;8.01;75.13
76762;BME280;65705;51.032;13.790;2023-04-19T04:31:44;101053.94;;;8.08;75.19
76762;BME280;65705;51.032;13.790;2023-04-19T04:34:11;101060.22;;;8.06;75.19
76762;BME280;65705;51.032;13.790;2023-04-19T04:36:46;101058.09;;;8.11;75.02
76762;BME280;65705;51.032;13.790;2023-04-19T04:39:14;101050.81;;;8.14;74.61
76762;BME280;65705;51.032;13.790;2023-04-19T04:41:41;101040.63;;;8.00;73.79
76762;BME280;65705;51.032;13.790;2023-04-19T04:44:08;101051.53;;;8.05;73.74
76762;BME280;65705;51.032;13.790;2023-04-19T04:46:35;101047.88;;;8.08;72.90
76762;BME280;65705;51.032;13.790;2023-04-19T04:49:01;101044.28;;;8.09;72.70
76762;BME280;65705;51.032;13.790;2023-04-19T04:51:27;101044.28;;;8.09;72.91
76762;BME280;65705;51.032;13.790;2023-04-19T04:53:55;101048.47;;;8.11;72.58
76762;BME280;65705;51.032;13.790;2023-04-19T04:56:22;101050.72;;;8.05;70.64
76762;BME280;65705;51.032;13.790;2023-04-19T04:58:47;101042.66;;;8.08;70.92
76762;BME280;65705;51.032;13.790;2023-04-19T05:01:21;101034.09;;;7.95;69.79
76762;BME280;65705;51.032;13.790;2023-04-19T05:03:49;101043.47;;;7.86;69.71
76762;BME280;65705;51.032;13.790;2023-04-19T05:06:17;101047.84;;;7.64;69.56
76762;BME280;65705;51.032;13.790;2023-04-19T05:08:43;101040.63;;;7.56;69.27
76762;BME280;65705;51.032;13.790;2023-04-19T05:11:29;101045.44;;;7.49;69.55
76762;BME280;65705;51.032;13.790;2023-04-19T05:13:55;101040.38;;;7.59;69.14
76762;BME280;65705;51.032;13.790;2023-04-19T05:16:22;101046.56;;;7.58;68.92
76762;BME280;65705;51.032;13.790;2023-04-19T05:18:48;101046.53;;;7.69;66.95
76762;BME280;65705;51.032;13.790;2023-04-19T05:21:14;101049.31;;;7.90;65.84
76762;BME280;65705;51.032;13.790;2023-04-19T05:23:40;101045.72;;;7.91;66.00
76762;BME280;65705;51.032;13.790;2023-04-19T05:26:07;101046.69;;;8.01;65.90
76762;BME280;65705;51.032;13.790;2023-04-19T05:28:37;101049.53;;;7.98;65.00
76762;BME280;65705;51.032;13.790;2023-04-19T05:31:08;101053.81;;;7.88;63.56
76762;BME280;65705;51.032;13.790;2023-04-19T05:33:42;101050.34;;;7.87;62.96
76762;BME280;65705;51.032;13.790;2023-04-19T05:36:08;101055.34;;;7.79;63.89
76762;BME280;65705;51.032;13.790;2023-04-19T05:38:34;101049.41;;;7.66;61.35
76762;BME280;65705;51.032;13.790;2023-04-19T05:41:02;101045.22;;;7.64;61.50
76762;BME280;65705;51.032;13.790;2023-04-19T05:43:28;101051.66;;;7.60;60.62
76762;BME280;65705;51.032;13.790;2023-04-19T05:45:53;101055.06;;;7.60;61.38
76762;BME280;65705;51.032;13.790;2023-04-19T05:48:19;101047.84;;;7.64;61.54
76762;BME280;65705;51.032;13.790;2023-04-19T05:51:00;101057.97;;;7.68;61.43
76762;BME280;65705;51.032;13.790;2023-04-19T05:53:48;101047.03;;;7.74;60.70
76762;BME280;65705;51.032;13.790;2023-04-19T05:56:14;101050.00;;;7.81;60.60
76762;BME280;65705;51.032;13.790;2023-04-19T05:58:40;101044.78;;;7.92;59.50
76762;BME280;65705;51.032;13.790;2023-04-19T06:01:06;101047.41;;;7.92;60.13
76762;BME280;65705;51.032;13.790;2023-04-19T06:03:32;101046.81;;;7.99;59.06
76762;BME280;65705;51.032;13.790;2023-04-19T06:05:59;101048.47;;;8.00;59.76
76762;BME280;65705;51.032;13.790;2023-04-19T06:08:24;101047.88;;;8.08;59.57
76762;BME280;65705;51.032;13.790;2023-04-19T06:10:53;101040.97;;;8.07;56.79
76762;BME280;65705;51.032;13.790;2023-04-19T06:13:20;101051.78;;;8.13;57.85
76762;BME280;65705;51.032;13.790;2023-04-19T06:15:47;101054.75;;;8.09;56.59
76762;BME280;65705;51.032;13.790;2023-04-19T06:18:13;101061.19;;;8.05;56.02
76762;BME280;65705;51.032;13.790;2023-04-19T06:20:39;101050.59;;;7.95;54.23
76762;BME280;65705;51.032;13.790;2023-04-19T06:23:05;101051.91;;;8.01;54.91
76762;BME280;65705;51.032;13.790;2023-04-19T06:25:31;101051.66;;;7.93;53.11
76762;BME280;65705;51.032;13.790;2023-04-19T06:27:57;101042.06;;;7.93;53.37
76762;BME280;65705;51.032;13.790;2023-04-19T06:30:22;101043.09;;;8.02;51.85
76762;BME280;65705;51.032;13.790;2023-04-19T06:32:48;101036.22;;;8.12;52.48
76762;BME280;65705;51.032;13.790;2023-04-19T06:35:14;101036.72;;;8.28;52.64
76762;BME280;65705;51.032;13.790;2023-04-19T06:37:40;101046.31;;;8.38;52.16
76762;BME280;65705;51.032;13.790;2023-04-19T06:40:07;101047.25;;;8.37;52.38
76762;BME280;65705;51.032;13.790;2023-04-19T06:42:36;101060.94;;;8.30;51.00
76762;BME280;65705;51.032;13.790;2023-04-19T06:45:02;101053.69;;;8.22;49.75
76762;BME280;65705;51.032;13.790;2023-04-19T06:47:29;101058.69;;;8.25;49.65
76762;BME280;65705;51.032;13.790;2023-04-19T06:49:56;101052.13;;;8.20;48.71
76762;BME280;65705;51.032;13.790;2023-04-19T06:52:21;101049.88;;;8.15;49.33
76762;BME280;65705;51.032;13.790;2023-04-19T06:54:48;101051.31;;;8.08;50.13
76762;BME280;65705;51.032;13.790;2023-04-19T06:57:15;101038.00;;;8.11;50.02
76762;BME280;65705;51.032;13.790;2023-04-19T06:59:40;101035.97;;;8.04;50.68
76762;BME280;65705;51.032;13.790;2023-04-19T07:02:06;101035.84;;;8.16;50.67
76762;BME280;65705;51.032;13.790;2023-04-19T07:04:32;101026.59;;;8.12;51.47
76762;BME280;65705;51.032;13.790;2023-04-19T07:06:58;101020.44;;;8.02;51.34
76762;BME280;65705;51.032;13.790;2023-04-19T07:09:25;101011.03;;;8.11;52.38
76762;BME280;65705;51.032;13.790;2023-04-19T07:11:50;101012.91;;;8.09;51.41
76762;BME280;65705;51.032;13.790;2023-04-19T07:14:17;101016.97;;;7.91;51.79
76762;BME280;65705;51.032;13.790;2023-04-19T07:16:44;101029.81;;;7.72;51.72
76762;BME280;65705;51.032;13.790;2023-04-19T07:19:11;101019.94;;;7.64;52.31
76762;BME280;65705;51.032;13.790;2023-04-19T07:21:36;101009.47;;;7.53;51.56
76762;BME280;65705;51.032;13.790;2023-04-19T07:24:06;101023.47;;;7.41;51.26
76762;BME280;65705;51.032;13.790;2023-04-19T07:26:33;100996.31;;;7.43;50.15
76762;BME280;65705;51.032;13.790;2023-04-19T07:29:00;101003.66;;;7.49;49.61
76762;BME280;65705;51.032;13.790;2023-04-19T07:31:27;100993.22;;;7.61;50.99
76762;BME280;65705;51.032;13.790;2023-04-19T07:33:52;100999.78;;;7.88;51.43
76762;BME280;65705;51.032;13.790;2023-04-19T07:36:19;100989.19;;;7.90;50.07
76762;BME280;65705;51.032;13.790;2023-04-19T07:38:45;100998.53;;;8.03;50.94
76762;BME280;65705;51.032;13.790;2023-04-19T07:41:11;100987.63;;;7.76;50.68
76762;BME280;65705;51.032;13.790;2023-04-19T07:43:37;100993.56;;;7.78;51.24
76762;BME280;65705;51.032;13.790;2023-04-19T07:46:10;100996.91;;;7.80;50.68
76762;BME280;65705;51.032;13.790;2023-04-19T07:48:37;100991.59;;;7.71;52.04
76762;BME280;65705;51.032;13.790;2023-04-19T07:51:13;100988.00;;;7.94;51.72
76762;BME280;65705;51.032;13.790;2023-04-19T07:53:39;100991.78;;;8.01;51.49
76762;BME280;65705;51.032;13.790;2023-04-19T07:56:07;100994.53;;;7.88;51.41
76762;BME280;65705;51.032;13.790;2023-04-19T07:58:34;100985.50;;;7.70;50.98
76762;BME280;65705;51.032;13.790;2023-04-19T08:01:00;100992.25;;;7.73;51.58
76762;BME280;65705;51.032;13.790;2023-04-19T08:03:26;100990.75;;;7.81;50.91
76762;BME280;65705;51.032;13.790;2023-04-19T08:05:55;100981.59;;;7.87;51.30
76762;BME280;65705;51.032;13.790;2023-04-19T08:08:21;100979.78;;;7.87;51.21
76762;BME280;65705;51.032;13.790;2023-04-19T08:10:46;100982.41;;;7.98;51.11
76762;BME280;65705;51.032;13.790;2023-04-19T08:13:12;100976.47;;;7.96;51.40
76762;BME280;65705;51.032;13.790;2023-04-19T08:15:38;100964.09;;;7.98;51.61
76762;BME280;65705;51.032;13.790;2023-04-19T08:18:04;100975.88;;;7.82;52.12
76762;BME280;65705;51.032;13.790;2023-04-19T08:20:30;100960.69;;;7.87;52.69
76762;BME280;65705;51.032;13.790;2023-04-19T08:22:58;100961.22;;;8.01;53.03
76762;BME280;65705;51.032;13.790;2023-04-19T08:25:24;100962.91;;;8.13;52.86
76762;BME280;65705;51.032;13.790;2023-04-19T08:27:55;100964.69;;;8.24;52.70
76762;BME280;65705;51.032;13.790;2023-04-19T08:30:23;100960.88;;;8.28;51.79
76762;BME280;65705;51.032;13.790;2023-04-19T08:32:49;100962.31;;;8.10;52.74
76762;BME280;65705;51.032;13.790;2023-04-19T08:35:15;100954.69;;;8.29;53.49
76762;BME280;65705;51.032;13.790;2023-04-19T08:37:42;100960.38;;;8.34;53.06
76762;BME280;65705;51.032;13.790;2023-04-19T08:40:08;100955.72;;;8.37;52.83
76762;BME280;65705;51.032;13.790;2023-04-19T08:42:36;100963.94;;;8.33;53.88
76762;BME280;65705;51.032;13.790;2023-04-19T08:45:03;100955.13;;;8.34;53.92
76762;BME280;65705;51.032;13.790;2023-04-19T08:47:33;100964.97;;;8.41;53.66
76762;BME280;65705;51.032;13.790;2023-04-19T08:50:01;100976.47;;;8.50;54.14
76762;BME280;65705;51.032;13.790;2023-04-19T08:52:28;100963.91;;;8.44;53.82
76762;BME280;65705;51.032;13.790;2023-04-19T08:54:54;100952.97;;;8.39;54.43
76762;BME280;65705;51.032;13.790;2023-04-19T08:57:20;100953.72;;;8.30;53.63
76762;BME280;65705;51.032;13.790;2023-04-19T08:59:46;100945.59;;;8.44;54.28
76762;BME280;65705;51.032;13.790;2023-04-19T09:02:16;100946.16;;;8.59;54.76
76762;BME280;65705;51.032;13.790;2023-04-19T09:04:42;100957.41;;;8.59;54.79
76762;BME280;65705;51.032;13.790;2023-04-19T09:07:08;100944.59;;;8.56;53.99
76762;BME280;65705;51.032;13.790;2023-04-19T09:09:33;100946.81;;;8.61;55.13
76762;BME280;65705;51.032;13.790;2023-04-19T09:12:01;100921.81;;;8.68;54.91
76762;BME280;65705;51.032;13.790;2023-04-19T09:14:27;100931.78;;;8.74;54.59
76762;BME280;65705;51.032;13.790;2023-04-19T09:16:53;100934.91;;;8.88;55.39
76762;BME280;65705;51.032;13.790;2023-04-19T09:19:45;100934.22;;;8.86;54.78
76762;BME280;65705;51.032;13.790;2023-04-19T09:22:12;100918.25;;;8.89;54.60
76762;BME280;65705;51.032;13.790;2023-04-19T09:24:38;100918.44;;;8.77;54.72
76762;BME280;65705;51.032;13.790;2023-04-19T09:27:04;100909.88;;;8.95;54.59
76762;BME280;65705;51.032;13.790;2023-04-19T09:29:30;100912.44;;;9.06;54.67
76762;BME280;65705;51.032;13.790;2023-04-19T09:31:57;100905.41;;;9.07;54.56
76762;BME280;65705;51.032;13.790;2023-04-19T09:34:23;100910.56;;;9.18;54.35
76762;BME280;65705;51.032;13.790;2023-04-19T09:36:49;100900.34;;;9.45;54.31
76762;BME280;65705;51.032;13.790;2023-04-19T09:39:31;100895.13;;;9.54;54.03
76762;BME280;65705;51.032;13.790;2023-04-19T09:41:57;100889.81;;;9.66;54.05
76762;BME280;65705;51.032;13.790;2023-04-19T09:44:23;100892.81;;;9.61;53.73
76762;BME280;65705;51.032;13.790;2023-04-19T09:46:49;100890.59;;;9.56;54.09
76762;BME280;65705;51.032;13.790;2023-04-19T09:49:17;100887.69;;;9.59;53.82
76762;BME280;65705;51.032;13.790;2023-04-19T09:51:48;100885.41;;;9.76;54.38
76762;BME280;65705;51.032;13.790;2023-04-19T09:54:17;100884.47;;;9.96;53.55
76762;BME280;65705;51.032;13.790;2023-04-19T09:56:43;100888.91;;;10.05;52.63
76762;BME280;65705;51.032;13.790;2023-04-19T09:59:10;100881.63;;;10.27;52.29
76762;BME280;65705;51.032;13.790;2023-04-19T10:01:42;100890.47;;;10.17;52.12
76762;BME280;65705;51.032;13.790;2023-04-19T10:04:13;100874.88;;;10.25;51.84
76762;BME280;65705;51.032;13.790;2023-04-19T10:06:53;100876.13;;;10.21;51.49
76762;BME280;65705;51.032;13.790;2023-04-19T10:09:22;100869.91;;;10.31;51.97
76762;BME280;65705;51.032;13.790;2023-04-19T10:11:52;100868.22;;;10.02;52.66
76762;BME280;65705;51.032;13.790;2023-04-19T10:14:21;100865.19;;;10.25;53.05
76762;BME280;65705;51.032;13.790;2023-04-19T10:16:47;100863.56;;;10.34;51.70
76762;BME280;65705;51.032;13.790;2023-04-19T10:19:15;100861.88;;;10.33;51.37
76762;BME280;65705;51.032;13.790;2023-04-19T10:21:42;100852.59;;;10.00;50.47
76762;BME280;65705;51.032;13.790;2023-04-19T10:24:12;100863.00;;;10.21;51.35
76762;BME280;65705;51.032;13.790;2023-04-19T10:27:10;100857.34;;;10.44;50.31
76762;BME280;65705;51.032;13.790;2023-04-19T10:29:59;100867.94;;;10.72;49.59
76762;BME280;65705;51.032;13.790;2023-04-19T10:32:35;100860.31;;;10.78;48.17
76762;BME280;65705;51.032;13.790;2023-04-19T10:35:19;100866.56;;;10.68;45.96
76762;BME280;65705;51.032;13.790;2023-04-19T10:38:21;100868.78;;;10.63;46.68
76762;BME280;65705;51.032;13.790;2023-04-19T10:41:00;100869.72;;;10.61;46.55
76762;BME280;65705;51.032;13.790;2023-04-19T10:43:30;100862.25;;;10.67;47.08
76762;BME280;65705;51.032;13.790;2023-04-19T10:46:09;100857.16;;;10.75;47.61
76762;BME280;65705;51.032;13.790;2023-04-19T10:48:40;100853.97;;;10.61;48.35
76762;BME280;65705;51.032;13.790;2023-04-19T10:51:14;100866.00;;;10.64;49.14
76762;BME280;65705;51.032;13.790;2023-04-19T10:59:22;100849.97;;;10.67;47.90
76762;BME280;65705;51.032;13.790;2023-04-19T11:01:50;100833.13;;;10.70;47.20
76762;BME280;65705;51.032;13.790;2023-04-19T11:11:51;100827.31;;;11.12;48.49
76762;BME280;65705;51.032;13.790;2023-04-19T11:14:19;100833.59;;;11.29;48.06
76762;BME280;65705;51.032;13.790;2023-04-19T11:16:45;100820.69;;;11.08;48.51
76762;BME280;65705;51.032;13.790;2023-04-19T11:19:15;100824.81;;;11.11;49.34
76762;BME280;65705;51.032;13.790;2023-04-19T11:21:41;100831.78;;;11.02;47.08
76762;BME280;65705;51.032;13.790;2023-04-19T11:24:10;100809.91;;;11.11;45.80
76762;BME280;65705;51.032;13.790;2023-04-19T11:26:36;100811.28;;;11.33;46.16
76762;BME280;65705;51.032;13.790;2023-04-19T11:29:02;100810.50;;;11.50;45.59
76762;BME280;65705;51.032;13.790;2023-04-19T11:31:31;100803.47;;;11.50;45.99
76762;BME280;65705;51.032;13.790;2023-04-19T11:33:58;100809.22;;;11.36;45.36
76762;BME280;65705;51.032;13.790;2023-04-19T11:36:25;100796.47;;;11.14;44.72
76762;BME280;65705;51.032;13.790;2023-04-19T11:38:54;100787.75;;;11.14;44.59
76762;BME280;65705;51.032;13.790;2023-04-19T11:41:20;100787.25;;;11.01;45.43
76762;BME280;65705;51.032;13.790;2023-04-19T11:43:45;100809.25;;;11.00;46.09
76762;BME280;65705;51.032;13.790;2023-04-19T11:46:12;100810.22;;;10.99;46.31
76762;BME280;65705;51.032;13.790;2023-04-19T11:48:49;100813.66;;;10.99;46.50
76762;BME280;65705;51.032;13.790;2023-04-19T11:51:16;100808.88;;;10.85;46.78
76762;BME280;65705;51.032;13.790;2023-04-19T11:53:42;100813.59;;;10.82;47.57
76762;BME280;65705;51.032;13.790;2023-04-19T11:56:08;100807.34;;;10.92;47.40
76762;BME280;65705;51.032;13.790;2023-04-19T11:58:40;100808.25;;;10.64;47.36
76762;BME280;65705;51.032;13.790;2023-04-19T12:01:13;100809.22;;;10.63;48.28
76762;BME280;65705;51.032;13.790;2023-04-19T12:03:43;100789.03;;;10.73;47.79
76762;BME280;65705;51.032;13.790;2023-04-19T12:06:10;100801.97;;;10.84;47.41
76762;BME280;65705;51.032;13.790;2023-04-19T12:08:48;100799.75;;;10.89;47.58
76762;BME280;65705;51.032;13.790;2023-04-19T12:11:15;100797.50;;;10.94;46.82
76762;BME280;65705;51.032;13.790;2023-04-19T12:13:41;100786.63;;;11.16;46.93
76762;BME280;65705;51.032;13.790;2023-04-19T12:16:09;100791.03;;;11.25;46.67
76762;BME280;65705;51.032;13.790;2023-04-19T12:18:46;100792.41;;;11.47;45.53
76762;BME280;65705;51.032;13.790;2023-04-19T12:21:36;100791.13;;;11.51;45.00
76762;BME280;65705;51.032;13.790;2023-04-19T12:24:01;100796.47;;;11.41;45.81
76762;BME280;65705;51.032;13.790;2023-04-19T12:26:28;100788.06;;;11.55;46.18
76762;BME280;65705;51.032;13.790;2023-04-19T12:28:56;100790.00;;;11.53;45.60
76762;BME280;65705;51.032;13.790;2023-04-19T12:31:22;100793.47;;;11.36;45.73
76762;BME280;65705;51.032;13.790;2023-04-19T12:33:48;100783.00;;;11.27;46.71
76762;BME280;65705;51.032;13.790;2023-04-19T12:36:15;100784.66;;;11.45;46.74
76762;BME280;65705;51.032;13.790;2023-04-19T12:38:41;100777.19;;;11.50;47.18
76762;BME280;65705;51.032;13.790;2023-04-19T12:41:07;100781.41;;;11.61;46.85
76762;BME280;65705;51.032;13.790;2023-04-19T12:43:32;100781.13;;;11.37;46.93
76762;BME280;65705;51.032;13.790;2023-04-19T12:45:59;100784.44;;;11.39;47.31
76762;BME280;65705;51.032;13.790;2023-04-19T12:48:26;100769.50;;;11.67;47.09
76762;BME280;65705;51.032;13.790;2023-04-19T12:50:52;100762.13;;;11.88;46.51
76762;BME280;65705;51.032;13.790;2023-04-19T12:53:18;100769.25;;;11.95;46.31
76762;BME280;65705;51.032;13.790;2023-04-19T12:55:44;100770.16;;;11.69;45.23
76762;BME280;65705;51.032;13.790;2023-04-19T12:58:18;100768.44;;;11.95;45.51
76762;BME280;65705;51.032;13.790;2023-04-19T13:00:45;100754.16;;;12.23;45.53
76762;BME280;65705;51.032;13.790;2023-04-19T13:03:11;100758.50;;;11.89;45.04
76762;BME280;65705;51.032;13.790;2023-04-19T13:05:38;100755.50;;;11.66;46.06